sensor_id;sensor_type;location;lat;lon;timestamp;temperature;humidity
80937;DHT22;70395;51.382;7.074;2023-08-21T00:01:45;20.00;68.20
80937;DHT22;70395;51.382;7.074;2023-08-21T00:04:11;20.00;68.50
80937;DHT22;70395;51.382;7.074;2023-08-21T00:06:37;19.90;68.40
80937;DHT22;70395;51.382;7.074;2023-08-21T00:09:03;19.90;68.40
80937;DHT22;70395;51.382;7.074;2023-08-21T00:11:28;19.90;68.50
80937;DHT22;70395;51.382;7.074;2023-08-21T00:13:54;19.90;68.70
80937;DHT22;70395;51.382;7.074;2023-08-21T00:16:20;19.80;68.60
80937;DHT22;70395;51.382;7.074;2023-08-21T00:18:46;19.80;68.80
80937;DHT22;70395;51.382;7.074;2023-08-21T00:21:12;19.80;69.00
80937;DHT22;70395;51.382;7.074;2023-08-21T00:23:38;19.80;69.00
80937;DHT22;70395;51.382;7.074;2023-08-21T00:26:04;19.80;69.00
80937;DHT22;70395;51.382;7.074;2023-08-21T00:28:30;19.80;69.20
80937;DHT22;70395;51.382;7.074;2023-08-21T00:31:05;19.70;69.30
80937;DHT22;70395;51.382;7.074;2023-08-21T00:33:32;19.70;70.00
80937;DHT22;70395;51.382;7.074;2023-08-21T00:35:58;19.70;69.40
80937;DHT22;70395;51.382;7.074;2023-08-21T00:38:24;19.70;69.40
80937;DHT22;70395;51.382;7.074;2023-08-21T00:40:51;19.70;69.60
80937;DHT22;70395;51.382;7.074;2023-08-21T00:43:17;19.70;69.60
80937;DHT22;70395;51.382;7.074;2023-08-21T00:45:45;19.70;69.90
80937;DHT22;70395;51.382;7.074;2023-08-21T00:48:13;19.70;70.10
80937;DHT22;70395;51.382;7.074;2023-08-21T00:50:40;19.70;70.10
80937;DHT22;70395;51.382;7.074;2023-08-21T00:53:06;19.70;70.10
80937;DHT22;70395;51.382;7.074;2023-08-21T00:55:32;19.70;70.00
80937;DHT22;70395;51.382;7.074;2023-08-21T00:58:00;19.70;70.00
80937;DHT22;70395;51.382;7.074;2023-08-21T01:00:29;19.70;70.30
80937;DHT22;70395;51.382;7.074;2023-08-21T01:02:56;19.70;70.30
80937;DHT22;70395;51.382;7.074;2023-08-21T01:05:22;19.70;70.30
80937;DHT22;70395;51.382;7.074;2023-08-21T01:08:10;19.60;70.30
80937;DHT22;70395;51.382;7.074;2023-08-21T01:10:52;19.60;70.50
80937;DHT22;70395;51.382;7.074;2023-08-21T01:13:24;19.60;70.10
80937;DHT22;70395;51.382;7.074;2023-08-21T01:16:07;19.60;69.50
80937;DHT22;70395;51.382;7.074;2023-08-21T01:18:35;19.60;69.50
80937;DHT22;70395;51.382;7.074;2023-08-21T01:21:02;19.50;69.60
80937;DHT22;70395;51.382;7.074;2023-08-21T01:23:32;19.50;69.60
80937;DHT22;70395;51.382;7.074;2023-08-21T01:25:58;19.40;69.50
80937;DHT22;70395;51.382;7.074;2023-08-21T01:28:24;19.40;69.40
80937;DHT22;70395;51.382;7.074;2023-08-21T01:31:05;19.40;69.60
80937;DHT22;70395;51.382;7.074;2023-08-21T01:33:42;19.30;70.10
80937;DHT22;70395;51.382;7.074;2023-08-21T01:36:12;19.30;70.10
80937;DHT22;70395;51.382;7.074;2023-08-21T01:38:38;19.30;70.00
80937;DHT22;70395;51.382;7.074;2023-08-21T01:41:04;19.20;69.90
80937;DHT22;70395;51.382;7.074;2023-08-21T01:43:30;19.20;70.00
80937;DHT22;70395;51.382;7.074;2023-08-21T01:45:56;19.20;70.10
80937;DHT22;70395;51.382;7.074;2023-08-21T01:48:22;19.20;70.20
80937;DHT22;70395;51.382;7.074;2023-08-21T01:50:48;19.10;70.00
80937;DHT22;70395;51.382;7.074;2023-08-21T01:53:14;19.10;70.10
80937;DHT22;70395;51.382;7.074;2023-08-21T01:55:39;19.10;70.20
80937;DHT22;70395;51.382;7.074;2023-08-21T01:58:05;19.10;70.30
80937;DHT22;70395;51.382;7.074;2023-08-21T02:00:31;19.00;70.40
80937;DHT22;70395;51.382;7.074;2023-08-21T02:02:57;19.00;70.50
80937;DHT22;70395;51.382;7.074;2023-08-21T02:05:22;19.00;70.80
80937;DHT22;70395;51.382;7.074;2023-08-21T02:07:48;18.90;70.70
80937;DHT22;70395;51.382;7.074;2023-08-21T02:10:14;18.90;70.70
80937;DHT22;70395;51.382;7.074;2023-08-21T02:12:40;18.90;70.80
80937;DHT22;70395;51.382;7.074;2023-08-21T02:15:06;18.90;70.80
80937;DHT22;70395;51.382;7.074;2023-08-21T02:17:32;18.90;71.50
80937;DHT22;70395;51.382;7.074;2023-08-21T02:19:58;18.90;70.90
80937;DHT22;70395;51.382;7.074;2023-08-21T02:22:24;18.80;70.70
80937;DHT22;70395;51.382;7.074;2023-08-21T02:24:49;18.80;70.80
80937;DHT22;70395;51.382;7.074;2023-08-21T02:27:15;18.80;70.90
80937;DHT22;70395;51.382;7.074;2023-08-21T02:29:41;18.80;71.00
80937;DHT22;70395;51.382;7.074;2023-08-21T02:32:07;18.80;71.10
80937;DHT22;70395;51.382;7.074;2023-08-21T02:34:32;18.70;71.00
80937;DHT22;70395;51.382;7.074;2023-08-21T02:36:58;18.70;71.20
80937;DHT22;70395;51.382;7.074;2023-08-21T02:39:24;18.70;71.00
80937;DHT22;70395;51.382;7.074;2023-08-21T02:41:50;18.70;71.10
80937;DHT22;70395;51.382;7.074;2023-08-21T02:44:15;18.60;71.10
80937;DHT22;70395;51.382;7.074;2023-08-21T02:46:41;18.60;71.00
80937;DHT22;70395;51.382;7.074;2023-08-21T02:49:07;18.70;71.10
80937;DHT22;70395;51.382;7.074;2023-08-21T02:51:33;18.60;71.20
80937;DHT22;70395;51.382;7.074;2023-08-21T02:53:58;18.60;71.20
80937;DHT22;70395;51.382;7.074;2023-08-21T02:56:24;18.60;71.40
80937;DHT22;70395;51.382;7.074;2023-08-21T02:58:50;18.60;71.30
80937;DHT22;70395;51.382;7.074;2023-08-21T03:01:16;18.60;71.40
80937;DHT22;70395;51.382;7.074;2023-08-21T03:03:42;18.60;71.50
80937;DHT22;70395;51.382;7.074;2023-08-21T03:06:08;18.60;71.40
80937;DHT22;70395;51.382;7.074;2023-08-21T03:08:34;18.60;71.30
80937;DHT22;70395;51.382;7.074;2023-08-21T03:10:59;18.60;71.50
80937;DHT22;70395;51.382;7.074;2023-08-21T03:13:25;18.60;71.50
80937;DHT22;70395;51.382;7.074;2023-08-21T03:15:51;18.60;71.40
80937;DHT22;70395;51.382;7.074;2023-08-21T03:18:17;18.60;71.30
80937;DHT22;70395;51.382;7.074;2023-08-21T03:20:46;18.60;71.30
80937;DHT22;70395;51.382;7.074;2023-08-21T03:23:15;18.60;71.60
80937;DHT22;70395;51.382;7.074;2023-08-21T03:25:41;18.60;71.70
80937;DHT22;70395;51.382;7.074;2023-08-21T03:28:07;18.60;71.50
80937;DHT22;70395;51.382;7.074;2023-08-21T03:30:32;18.60;71.40
80937;DHT22;70395;51.382;7.074;2023-08-21T03:32:58;18.60;71.40
80937;DHT22;70395;51.382;7.074;2023-08-21T03:35:24;18.60;71.40
80937;DHT22;70395;51.382;7.074;2023-08-21T03:37:50;18.60;71.50
80937;DHT22;70395;51.382;7.074;2023-08-21T03:40:15;18.60;71.60
80937;DHT22;70395;51.382;7.074;2023-08-21T03:42:41;18.60;71.60
80937;DHT22;70395;51.382;7.074;2023-08-21T03:45:08;18.60;71.70
80937;DHT22;70395;51.382;7.074;2023-08-21T03:47:34;18.60;71.80
80937;DHT22;70395;51.382;7.074;2023-08-21T03:50:00;18.60;71.80
80937;DHT22;70395;51.382;7.074;2023-08-21T03:52:26;18.60;71.80
80937;DHT22;70395;51.382;7.074;2023-08-21T03:54:52;18.60;71.90
80937;DHT22;70395;51.382;7.074;2023-08-21T03:57:17;18.60;71.80
80937;DHT22;70395;51.382;7.074;2023-08-21T03:59:43;18.60;71.80
80937;DHT22;70395;51.382;7.074;2023-08-21T04:02:09;18.70;71.80
80937;DHT22;70395;51.382;7.074;2023-08-21T04:04:35;18.70;71.80
80937;DHT22;70395;51.382;7.074;2023-08-21T04:07:01;18.70;72.50
80937;DHT22;70395;51.382;7.074;2023-08-21T04:09:27;18.70;71.80
80937;DHT22;70395;51.382;7.074;2023-08-21T04:11:52;18.60;71.70
80937;DHT22;70395;51.382;7.074;2023-08-21T04:14:18;18.60;71.80
80937;DHT22;70395;51.382;7.074;2023-08-21T04:16:44;18.60;71.80
80937;DHT22;70395;51.382;7.074;2023-08-21T04:19:10;18.60;71.80
80937;DHT22;70395;51.382;7.074;2023-08-21T04:21:35;18.60;71.80
80937;DHT22;70395;51.382;7.074;2023-08-21T04:24:01;18.60;72.00
80937;DHT22;70395;51.382;7.074;2023-08-21T04:26:27;18.60;72.10
80937;DHT22;70395;51.382;7.074;2023-08-21T04:28:53;18.60;72.10
80937;DHT22;70395;51.382;7.074;2023-08-21T04:31:19;18.60;72.20
80937;DHT22;70395;51.382;7.074;2023-08-21T04:33:44;18.60;72.20
80937;DHT22;70395;51.382;7.074;2023-08-21T04:36:17;18.60;72.10
80937;DHT22;70395;51.382;7.074;2023-08-21T04:38:43;18.60;72.40
80937;DHT22;70395;51.382;7.074;2023-08-21T04:41:09;18.70;72.10
80937;DHT22;70395;51.382;7.074;2023-08-21T04:43:36;18.70;72.10
80937;DHT22;70395;51.382;7.074;2023-08-21T04:46:02;18.70;72.20
80937;DHT22;70395;51.382;7.074;2023-08-21T04:48:29;18.60;72.70
80937;DHT22;70395;51.382;7.074;2023-08-21T04:50:55;18.60;72.50
80937;DHT22;70395;51.382;7.074;2023-08-21T04:53:21;18.70;72.50
80937;DHT22;70395;51.382;7.074;2023-08-21T04:55:47;18.70;72.70
80937;DHT22;70395;51.382;7.074;2023-08-21T04:58:13;18.70;72.40
80937;DHT22;70395;51.382;7.074;2023-08-21T05:00:39;18.70;72.20
80937;DHT22;70395;51.382;7.074;2023-08-21T05:03:06;18.80;72.40
80937;DHT22;70395;51.382;7.074;2023-08-21T05:05:35;18.80;72.30
80937;DHT22;70395;51.382;7.074;2023-08-21T05:08:01;18.90;72.40
80937;DHT22;70395;51.382;7.074;2023-08-21T05:10:27;18.90;72.20
80937;DHT22;70395;51.382;7.074;2023-08-21T05:12:53;19.00;72.50
80937;DHT22;70395;51.382;7.074;2023-08-21T05:15:19;19.10;73.40
80937;DHT22;70395;51.382;7.074;2023-08-21T05:17:44;19.20;72.50
80937;DHT22;70395;51.382;7.074;2023-08-21T05:20:10;19.30;72.40
80937;DHT22;70395;51.382;7.074;2023-08-21T05:22:39;19.30;72.30
80937;DHT22;70395;51.382;7.074;2023-08-21T05:25:05;19.40;72.20
80937;DHT22;70395;51.382;7.074;2023-08-21T05:27:32;19.50;72.00
80937;DHT22;70395;51.382;7.074;2023-08-21T05:29:57;19.60;71.90
80937;DHT22;70395;51.382;7.074;2023-08-21T05:32:23;19.70;71.70
80937;DHT22;70395;51.382;7.074;2023-08-21T05:34:49;19.70;71.40
80937;DHT22;70395;51.382;7.074;2023-08-21T05:37:15;19.80;71.40
80937;DHT22;70395;51.382;7.074;2023-08-21T05:39:43;19.80;71.40
80937;DHT22;70395;51.382;7.074;2023-08-21T05:42:09;19.90;71.20
80937;DHT22;70395;51.382;7.074;2023-08-21T05:44:35;19.90;71.00
80937;DHT22;70395;51.382;7.074;2023-08-21T05:47:00;20.00;71.10
80937;DHT22;70395;51.382;7.074;2023-08-21T05:49:26;20.00;71.20
80937;DHT22;70395;51.382;7.074;2023-08-21T05:51:52;20.10;71.20
80937;DHT22;70395;51.382;7.074;2023-08-21T05:54:19;20.20;71.30
80937;DHT22;70395;51.382;7.074;2023-08-21T05:56:45;20.30;71.50
80937;DHT22;70395;51.382;7.074;2023-08-21T05:59:11;20.30;71.10
80937;DHT22;70395;51.382;7.074;2023-08-21T06:01:37;20.40;71.00
80937;DHT22;70395;51.382;7.074;2023-08-21T06:04:03;20.50;70.80
80937;DHT22;70395;51.382;7.074;2023-08-21T06:06:29;20.60;70.60
80937;DHT22;70395;51.382;7.074;2023-08-21T06:08:55;20.60;70.20
80937;DHT22;70395;51.382;7.074;2023-08-21T06:11:20;20.60;70.00
80937;DHT22;70395;51.382;7.074;2023-08-21T06:13:47;20.70;70.10
80937;DHT22;70395;51.382;7.074;2023-08-21T06:16:13;20.80;70.00
80937;DHT22;70395;51.382;7.074;2023-08-21T06:18:39;20.80;69.80
80937;DHT22;70395;51.382;7.074;2023-08-21T06:21:04;20.80;69.60
80937;DHT22;70395;51.382;7.074;2023-08-21T06:23:30;20.90;69.80
80937;DHT22;70395;51.382;7.074;2023-08-21T06:25:56;21.00;70.20
80937;DHT22;70395;51.382;7.074;2023-08-21T06:28:22;21.00;70.00
80937;DHT22;70395;51.382;7.074;2023-08-21T06:30:55;21.20;70.10
80937;DHT22;70395;51.382;7.074;2023-08-21T06:33:24;21.30;70.00
80937;DHT22;70395;51.382;7.074;2023-08-21T06:35:50;21.40;70.10
80937;DHT22;70395;51.382;7.074;2023-08-21T06:38:16;21.50;70.00
80937;DHT22;70395;51.382;7.074;2023-08-21T06:40:42;21.70;70.10
80937;DHT22;70395;51.382;7.074;2023-08-21T06:43:07;21.80;69.80
80937;DHT22;70395;51.382;7.074;2023-08-21T06:45:33;22.00;69.50
80937;DHT22;70395;51.382;7.074;2023-08-21T06:47:59;22.10;69.00
80937;DHT22;70395;51.382;7.074;2023-08-21T06:50:25;22.30;68.60
80937;DHT22;70395;51.382;7.074;2023-08-21T06:52:51;22.40;68.50
80937;DHT22;70395;51.382;7.074;2023-08-21T06:55:17;22.60;68.40
80937;DHT22;70395;51.382;7.074;2023-08-21T06:57:43;22.80;68.40
80937;DHT22;70395;51.382;7.074;2023-08-21T07:00:09;23.00;67.40
80937;DHT22;70395;51.382;7.074;2023-08-21T07:02:35;23.20;66.80
80937;DHT22;70395;51.382;7.074;2023-08-21T07:05:01;23.40;66.30
80937;DHT22;70395;51.382;7.074;2023-08-21T07:07:28;23.60;65.20
80937;DHT22;70395;51.382;7.074;2023-08-21T07:09:54;23.80;64.40
80937;DHT22;70395;51.382;7.074;2023-08-21T07:12:21;24.00;64.00
80937;DHT22;70395;51.382;7.074;2023-08-21T07:14:47;24.10;63.10
80937;DHT22;70395;51.382;7.074;2023-08-21T07:17:14;24.20;63.10
80937;DHT22;70395;51.382;7.074;2023-08-21T07:19:39;24.30;62.60
80937;DHT22;70395;51.382;7.074;2023-08-21T07:22:05;24.40;61.80
80937;DHT22;70395;51.382;7.074;2023-08-21T07:24:31;24.60;61.40
80937;DHT22;70395;51.382;7.074;2023-08-21T07:26:57;24.70;61.10
80937;DHT22;70395;51.382;7.074;2023-08-21T07:29:23;24.80;61.10
80937;DHT22;70395;51.382;7.074;2023-08-21T07:31:48;24.90;61.60
80937;DHT22;70395;51.382;7.074;2023-08-21T07:34:14;25.10;60.90
80937;DHT22;70395;51.382;7.074;2023-08-21T07:36:40;25.20;60.50
80937;DHT22;70395;51.382;7.074;2023-08-21T07:39:06;25.40;60.80
80937;DHT22;70395;51.382;7.074;2023-08-21T07:41:31;25.70;60.10
80937;DHT22;70395;51.382;7.074;2023-08-21T07:43:57;25.90;59.50
80937;DHT22;70395;51.382;7.074;2023-08-21T07:46:23;26.10;59.10
80937;DHT22;70395;51.382;7.074;2023-08-21T07:48:49;26.30;58.30
80937;DHT22;70395;51.382;7.074;2023-08-21T07:51:15;26.50;58.00
80937;DHT22;70395;51.382;7.074;2023-08-21T07:53:41;26.70;57.70
80937;DHT22;70395;51.382;7.074;2023-08-21T07:56:07;26.90;57.80
80937;DHT22;70395;51.382;7.074;2023-08-21T07:58:33;27.00;57.20
80937;DHT22;70395;51.382;7.074;2023-08-21T08:00:59;27.10;56.70
80937;DHT22;70395;51.382;7.074;2023-08-21T08:03:26;27.40;56.80
80937;DHT22;70395;51.382;7.074;2023-08-21T08:05:52;27.60;55.90
80937;DHT22;70395;51.382;7.074;2023-08-21T08:08:18;27.80;55.20
80937;DHT22;70395;51.382;7.074;2023-08-21T08:10:44;27.90;54.80
80937;DHT22;70395;51.382;7.074;2023-08-21T08:13:10;28.10;54.30
80937;DHT22;70395;51.382;7.074;2023-08-21T08:15:36;28.20;54.90
80937;DHT22;70395;51.382;7.074;2023-08-21T08:18:03;28.50;54.20
80937;DHT22;70395;51.382;7.074;2023-08-21T08:20:32;28.60;54.30
80937;DHT22;70395;51.382;7.074;2023-08-21T08:22:58;28.90;53.60
80937;DHT22;70395;51.382;7.074;2023-08-21T08:25:24;29.20;53.50
80937;DHT22;70395;51.382;7.074;2023-08-21T08:27:51;29.40;53.20
80937;DHT22;70395;51.382;7.074;2023-08-21T08:30:17;29.80;52.70
80937;DHT22;70395;51.382;7.074;2023-08-21T08:32:43;30.10;52.30
80937;DHT22;70395;51.382;7.074;2023-08-21T08:35:14;30.50;51.70
80937;DHT22;70395;51.382;7.074;2023-08-21T08:37:43;30.80;51.00
80937;DHT22;70395;51.382;7.074;2023-08-21T08:40:10;31.20;49.80
80937;DHT22;70395;51.382;7.074;2023-08-21T08:42:37;31.60;49.10
80937;DHT22;70395;51.382;7.074;2023-08-21T08:45:04;31.90;47.80
80937;DHT22;70395;51.382;7.074;2023-08-21T08:47:34;32.20;47.90
80937;DHT22;70395;51.382;7.074;2023-08-21T08:50:05;32.40;46.50
80937;DHT22;70395;51.382;7.074;2023-08-21T08:52:37;32.70;46.40
80937;DHT22;70395;51.382;7.074;2023-08-21T08:55:04;33.00;45.50
80937;DHT22;70395;51.382;7.074;2023-08-21T08:57:32;33.30;45.60
80937;DHT22;70395;51.382;7.074;2023-08-21T08:59:59;33.60;44.80
80937;DHT22;70395;51.382;7.074;2023-08-21T09:02:26;33.80;43.50
80937;DHT22;70395;51.382;7.074;2023-08-21T09:04:52;34.10;43.30
80937;DHT22;70395;51.382;7.074;2023-08-21T09:07:18;34.30;43.40
80937;DHT22;70395;51.382;7.074;2023-08-21T09:09:46;34.40;42.90
80937;DHT22;70395;51.382;7.074;2023-08-21T09:12:18;34.70;42.50
80937;DHT22;70395;51.382;7.074;2023-08-21T09:14:45;34.90;42.00
80937;DHT22;70395;51.382;7.074;2023-08-21T09:17:12;35.10;41.60
80937;DHT22;70395;51.382;7.074;2023-08-21T09:19:38;35.30;40.40
80937;DHT22;70395;51.382;7.074;2023-08-21T09:22:09;35.60;39.80
80937;DHT22;70395;51.382;7.074;2023-08-21T09:24:38;35.70;39.60
80937;DHT22;70395;51.382;7.074;2023-08-21T09:27:13;35.90;39.10
80937;DHT22;70395;51.382;7.074;2023-08-21T09:29:41;36.00;37.90
80937;DHT22;70395;51.382;7.074;2023-08-21T09:32:07;36.10;38.90
80937;DHT22;70395;51.382;7.074;2023-08-21T09:34:37;36.20;38.60
80937;DHT22;70395;51.382;7.074;2023-08-21T09:37:07;36.40;37.50
80937;DHT22;70395;51.382;7.074;2023-08-21T09:39:36;36.50;37.50
80937;DHT22;70395;51.382;7.074;2023-08-21T09:42:08;36.70;37.70
80937;DHT22;70395;51.382;7.074;2023-08-21T09:44:39;36.90;37.70
80937;DHT22;70395;51.382;7.074;2023-08-21T09:47:10;37.00;36.80
80937;DHT22;70395;51.382;7.074;2023-08-21T09:49:38;37.20;36.70
80937;DHT22;70395;51.382;7.074;2023-08-21T09:52:08;37.40;37.80
80937;DHT22;70395;51.382;7.074;2023-08-21T09:54:37;37.50;37.10
80937;DHT22;70395;51.382;7.074;2023-08-21T09:57:04;37.80;36.60
80937;DHT22;70395;51.382;7.074;2023-08-21T09:59:33;37.90;35.40
80937;DHT22;70395;51.382;7.074;2023-08-21T10:02:00;38.10;35.40
80937;DHT22;70395;51.382;7.074;2023-08-21T10:04:30;38.30;35.40
80937;DHT22;70395;51.382;7.074;2023-08-21T10:06:58;38.50;34.90
80937;DHT22;70395;51.382;7.074;2023-08-21T10:09:29;38.60;34.20
80937;DHT22;70395;51.382;7.074;2023-08-21T10:11:56;38.80;34.50
80937;DHT22;70395;51.382;7.074;2023-08-21T10:14:23;38.90;33.80
80937;DHT22;70395;51.382;7.074;2023-08-21T10:16:52;39.00;34.10
80937;DHT22;70395;51.382;7.074;2023-08-21T10:19:19;39.00;33.50
80937;DHT22;70395;51.382;7.074;2023-08-21T10:21:49;39.10;33.50
80937;DHT22;70395;51.382;7.074;2023-08-21T10:24:35;39.10;32.80
80937;DHT22;70395;51.382;7.074;2023-08-21T10:27:03;39.20;32.70
80937;DHT22;70395;51.382;7.074;2023-08-21T10:29:29;39.30;32.70
80937;DHT22;70395;51.382;7.074;2023-08-21T10:32:04;39.30;32.70
80937;DHT22;70395;51.382;7.074;2023-08-21T10:34:37;39.30;32.00
80937;DHT22;70395;51.382;7.074;2023-08-21T10:37:09;39.30;32.10
80937;DHT22;70395;51.382;7.074;2023-08-21T10:39:39;39.20;32.30
80937;DHT22;70395;51.382;7.074;2023-08-21T10:42:19;39.00;31.90
80937;DHT22;70395;51.382;7.074;2023-08-21T10:47:21;38.60;33.20
80937;DHT22;70395;51.382;7.074;2023-08-21T10:49:56;38.50;32.80
80937;DHT22;70395;51.382;7.074;2023-08-21T10:52:31;38.30;32.90
80937;DHT22;70395;51.382;7.074;2023-08-21T10:55:14;38.00;32.90
80937;DHT22;70395;51.382;7.074;2023-08-21T10:57:41;37.80;33.50
80937;DHT22;70395;51.382;7.074;2023-08-21T11:00:15;37.70;34.10
80937;DHT22;70395;51.382;7.074;2023-08-21T11:02:44;37.60;34.20
80937;DHT22;70395;51.382;7.074;2023-08-21T11:05:13;37.50;33.60
80937;DHT22;70395;51.382;7.074;2023-08-21T11:07:47;37.50;34.90
80937;DHT22;70395;51.382;7.074;2023-08-21T11:10:15;37.40;34.80
80937;DHT22;70395;51.382;7.074;2023-08-21T11:12:56;37.50;34.00
80937;DHT22;70395;51.382;7.074;2023-08-21T11:15:28;37.70;34.70
80937;DHT22;70395;51.382;7.074;2023-08-21T11:17:56;37.90;34.10
80937;DHT22;70395;51.382;7.074;2023-08-21T11:20:30;38.20;34.90
80937;DHT22;70395;51.382;7.074;2023-08-21T11:23:01;38.50;34.30
80937;DHT22;70395;51.382;7.074;2023-08-21T11:25:32;38.80;33.50
80937;DHT22;70395;51.382;7.074;2023-08-21T11:28:07;39.10;33.60
80937;DHT22;70395;51.382;7.074;2023-08-21T11:30:33;39.50;32.80
80937;DHT22;70395;51.382;7.074;2023-08-21T11:33:09;39.80;32.20
80937;DHT22;70395;51.382;7.074;2023-08-21T11:35:38;40.00;32.20
80937;DHT22;70395;51.382;7.074;2023-08-21T11:38:04;40.30;31.50
80937;DHT22;70395;51.382;7.074;2023-08-21T11:40:34;40.30;30.80
80937;DHT22;70395;51.382;7.074;2023-08-21T11:43:01;40.20;30.80
80937;DHT22;70395;51.382;7.074;2023-08-21T11:45:27;40.10;31.10
80937;DHT22;70395;51.382;7.074;2023-08-21T11:47:56;39.90;31.00
80937;DHT22;70395;51.382;7.074;2023-08-21T11:50:22;39.70;30.60
80937;DHT22;70395;51.382;7.074;2023-08-21T11:52:51;39.50;31.60
80937;DHT22;70395;51.382;7.074;2023-08-21T11:55:18;39.50;31.50
80937;DHT22;70395;51.382;7.074;2023-08-21T11:57:49;39.50;32.10
80937;DHT22;70395;51.382;7.074;2023-08-21T12:00:16;39.50;31.80
80937;DHT22;70395;51.382;7.074;2023-08-21T12:02:57;39.50;31.90
80937;DHT22;70395;51.382;7.074;2023-08-21T12:05:24;39.60;32.60
80937;DHT22;70395;51.382;7.074;2023-08-21T12:07:50;39.60;31.60
80937;DHT22;70395;51.382;7.074;2023-08-21T12:10:28;39.40;31.10
80937;DHT22;70395;51.382;7.074;2023-08-21T12:12:55;39.30;31.90
80937;DHT22;70395;51.382;7.074;2023-08-21T12:15:22;39.10;32.50
80937;DHT22;70395;51.382;7.074;2023-08-21T12:17:48;39.10;32.40
80937;DHT22;70395;51.382;7.074;2023-08-21T12:20:14;39.20;32.40
80937;DHT22;70395;51.382;7.074;2023-08-21T12:22:40;39.30;31.80
80937;DHT22;70395;51.382;7.074;2023-08-21T12:25:09;39.50;31.90
80937;DHT22;70395;51.382;7.074;2023-08-21T12:27:36;39.70;31.40
80937;DHT22;70395;51.382;7.074;2023-08-21T12:30:02;40.00;31.70
80937;DHT22;70395;51.382;7.074;2023-08-21T12:32:29;40.20;31.00
80937;DHT22;70395;51.382;7.074;2023-08-21T12:34:55;40.30;30.20
80937;DHT22;70395;51.382;7.074;2023-08-21T12:37:20;40.40;30.00
80937;DHT22;70395;51.382;7.074;2023-08-21T12:39:46;40.50;29.60
80937;DHT22;70395;51.382;7.074;2023-08-21T12:42:12;40.60;30.20
80937;DHT22;70395;51.382;7.074;2023-08-21T12:44:38;40.60;29.60
80937;DHT22;70395;51.382;7.074;2023-08-21T12:47:04;40.70;29.90
80937;DHT22;70395;51.382;7.074;2023-08-21T12:49:29;40.90;29.90
80937;DHT22;70395;51.382;7.074;2023-08-21T12:51:55;41.00;29.30
80937;DHT22;70395;51.382;7.074;2023-08-21T12:54:21;41.10;29.20
80937;DHT22;70395;51.382;7.074;2023-08-21T12:56:47;41.20;29.10
80937;DHT22;70395;51.382;7.074;2023-08-21T12:59:13;41.20;29.10
80937;DHT22;70395;51.382;7.074;2023-08-21T13:01:39;41.30;29.50
80937;DHT22;70395;51.382;7.074;2023-08-21T13:04:05;41.40;29.10
80937;DHT22;70395;51.382;7.074;2023-08-21T13:06:31;41.40;28.50
80937;DHT22;70395;51.382;7.074;2023-08-21T13:08:57;41.50;28.50
80937;DHT22;70395;51.382;7.074;2023-08-21T13:11:23;41.50;28.10
80937;DHT22;70395;51.382;7.074;2023-08-21T13:13:49;41.50;27.90
80937;DHT22;70395;51.382;7.074;2023-08-21T13:16:15;41.50;28.30
80937;DHT22;70395;51.382;7.074;2023-08-21T13:18:40;41.40;28.70
80937;DHT22;70395;51.382;7.074;2023-08-21T13:21:07;41.30;28.60
80937;DHT22;70395;51.382;7.074;2023-08-21T13:23:33;41.10;28.80
80937;DHT22;70395;51.382;7.074;2023-08-21T13:26:00;40.70;28.30
80937;DHT22;70395;51.382;7.074;2023-08-21T13:28:27;40.30;29.10
80937;DHT22;70395;51.382;7.074;2023-08-21T13:30:53;39.70;29.50
80937;DHT22;70395;51.382;7.074;2023-08-21T13:33:19;39.10;30.40
80937;DHT22;70395;51.382;7.074;2023-08-21T13:35:45;38.50;30.90
80937;DHT22;70395;51.382;7.074;2023-08-21T13:38:14;38.00;31.20
80937;DHT22;70395;51.382;7.074;2023-08-21T13:40:40;37.40;30.90
80937;DHT22;70395;51.382;7.074;2023-08-21T13:43:07;37.00;31.80
80937;DHT22;70395;51.382;7.074;2023-08-21T13:45:35;36.70;33.90
80937;DHT22;70395;51.382;7.074;2023-08-21T13:48:01;36.60;33.70
80937;DHT22;70395;51.382;7.074;2023-08-21T13:50:28;36.70;33.20
80937;DHT22;70395;51.382;7.074;2023-08-21T13:52:54;36.80;34.20
80937;DHT22;70395;51.382;7.074;2023-08-21T13:55:19;37.10;33.60
80937;DHT22;70395;51.382;7.074;2023-08-21T13:57:45;37.50;33.00
80937;DHT22;70395;51.382;7.074;2023-08-21T14:00:11;37.80;32.90
80937;DHT22;70395;51.382;7.074;2023-08-21T14:02:39;38.20;32.20
80937;DHT22;70395;51.382;7.074;2023-08-21T14:05:06;38.60;31.80
80937;DHT22;70395;51.382;7.074;2023-08-21T14:07:34;38.90;31.20
80937;DHT22;70395;51.382;7.074;2023-08-21T14:10:00;39.20;30.70
80937;DHT22;70395;51.382;7.074;2023-08-21T14:12:29;39.50;29.90
80937;DHT22;70395;51.382;7.074;2023-08-21T14:14:56;39.70;29.70
80937;DHT22;70395;51.382;7.074;2023-08-21T14:17:23;40.00;30.20
80937;DHT22;70395;51.382;7.074;2023-08-21T14:19:49;40.20;30.00
80937;DHT22;70395;51.382;7.074;2023-08-21T14:22:15;40.30;29.40
80937;DHT22;70395;51.382;7.074;2023-08-21T14:24:41;40.40;29.30
80937;DHT22;70395;51.382;7.074;2023-08-21T14:27:07;40.50;29.10
80937;DHT22;70395;51.382;7.074;2023-08-21T14:29:33;40.50;29.20
80937;DHT22;70395;51.382;7.074;2023-08-21T14:31:59;40.60;29.00
80937;DHT22;70395;51.382;7.074;2023-08-21T14:34:26;40.70;29.10
80937;DHT22;70395;51.382;7.074;2023-08-21T14:36:55;40.60;28.50
80937;DHT22;70395;51.382;7.074;2023-08-21T14:39:25;40.70;28.40
80937;DHT22;70395;51.382;7.074;2023-08-21T14:41:57;40.60;28.50
80937;DHT22;70395;51.382;7.074;2023-08-21T14:44:24;40.60;28.80
80937;DHT22;70395;51.382;7.074;2023-08-21T14:46:54;40.60;28.60
80937;DHT22;70395;51.382;7.074;2023-08-21T14:49:21;40.50;29.00
80937;DHT22;70395;51.382;7.074;2023-08-21T14:51:48;40.50;28.80
80937;DHT22;70395;51.382;7.074;2023-08-21T14:54:13;40.40;28.60
80937;DHT22;70395;51.382;7.074;2023-08-21T14:56:39;40.30;29.00
80937;DHT22;70395;51.382;7.074;2023-08-21T14:59:05;40.30;29.00
80937;DHT22;70395;51.382;7.074;2023-08-21T15:01:31;40.20;29.10
80937;DHT22;70395;51.382;7.074;2023-08-21T15:03:57;40.20;28.70
80937;DHT22;70395;51.382;7.074;2023-08-21T15:06:22;40.10;28.90
80937;DHT22;70395;51.382;7.074;2023-08-21T15:08:48;40.00;28.70
80937;DHT22;70395;51.382;7.074;2023-08-21T15:11:14;39.80;28.90
80937;DHT22;70395;51.382;7.074;2023-08-21T15:13:40;39.70;29.20
80937;DHT22;70395;51.382;7.074;2023-08-21T15:16:06;39.60;29.30
80937;DHT22;70395;51.382;7.074;2023-08-21T15:18:32;39.40;29.30
80937;DHT22;70395;51.382;7.074;2023-08-21T15:20:58;39.30;29.80
80937;DHT22;70395;51.382;7.074;2023-08-21T15:23:24;39.10;29.80
80937;DHT22;70395;51.382;7.074;2023-08-21T15:25:51;39.00;30.30
80937;DHT22;70395;51.382;7.074;2023-08-21T15:28:17;38.70;30.00
80937;DHT22;70395;51.382;7.074;2023-08-21T15:30:43;38.60;30.20
80937;DHT22;70395;51.382;7.074;2023-08-21T15:33:08;38.50;30.60